x

Buoy E01 - Central Maine Shelf (44032) Wave Buoy

11:04 - Fri 30th Sep 2016 All times are EDT. -4 hours from GMT.

  • Sig Wave height 3.9ft
  • Peak Period 8s
  • Wind
    13mph, 16mph gusts
  • Sea Temp 56°f
  • Luft Temp 55°f
  • Sea Pressure 1029.8mb
  • Buoy E01 - Central Maine Shelf
  • Buoy E01 - Central Maine Shelf

More Historic Weather Station data

Upgrade to MSW Pro to gain access to the past 30 days of data for over 8000 Wavebouys and Weather Stations around the globe.

Join Pro

Comparision Forecast

View Surf forecast
   
Fr 09/30 11:04 4ft 8s 13 16 mph 1029.8mb 56f 55f
10:04 4.5ft 8s 13 16 mph 1030.3mb 56f 55f
9:04 4ft 8s 11 13 mph 1030.7mb 56f 55f
8:04 4.5ft 8s 13
mph
1030.6mb 56f 55f
6:04 4.5ft 11s 13 16 mph 1031.1mb 56f 55f
5:04 4.5ft 8s 13 16 mph 1031.3mb 56f 55f
4:04 4.5ft 8s 16
mph
1031.6mb 56f 55f
3:04  -   -  13 16 mph 1032.1mb 56f 55f
2:04 4.5ft 11s 16 18 mph 1032.3mb 56f 54f
1:04 4.5ft 11s 16 18 mph 1032.7mb 56f 54f
12:04 5ft 11s 18 20 mph 1032.9mb 56f 54f
11:04 2.5ft 4s 18 20 mph 1033.2mb 56f 54f
10:04  -   -  18 22 mph 1033.1mb 56f 54f
9:04 4.5ft 11s 16 18 mph 1033.3mb 56f 54f
8:04 5ft 11s 16 18 mph 1033.2mb 56f 55f
7:04 5ft 8s 16 18 mph 1033.2mb 56f 54f
6:04 4.5ft 8s 13 16 mph 1033.2mb 56f 54f
5:04 6ft 11s 13 16 mph 1033.4mb 56f 54f
4:04 4.5ft 8s 13 16 mph 1033.1mb 56f 55f
3:04 5ft 11s 11 16 mph 1033.2mb 56f 55f
2:04  -   -  13 16 mph 1033.4mb 56f 55f
1:04 5ft 11s 13 16 mph 1033.6mb 56f 56f
12:04 3.5ft 8s 11 13 mph 1033.4mb 56f 56f
Do 09/29 11:04 4.5ft 11s 9
mph
1033.6mb 56f 55f
10:04 4ft 8s 7 9 mph 1033.7mb 56f 56f
9:04 4.5ft 11s 7 9 mph 1033.5mb 56f 56f
8:04 4.5ft 11s 9 11 mph 1033.1mb 56f 57f
7:04 5ft 11s 7 9 mph 1032.9mb 56f 56f
6:04 6ft 11s 11 13 mph 1032.8mb 56f 58f
5:04 4.5ft 11s 9 11 mph 1032.7mb 57f 58f
4:04 4.5ft 8s 11 13 mph 1032.4mb 57f 57f
3:04 4.5ft 11s 13
mph
1032.8mb 57f 57f
2:04  -   -  16 18 mph 1032.6mb 56f 56f
1:04 3.5ft 5s 18 22 mph 1032.5mb 56f 55f
12:04 4.5ft 6s 18 22 mph 1032.8mb 56f 55f
11:04 4.5ft 5s 18 20 mph 1032.6mb 56f 54f
10:04 4.5ft 6s 20 25 mph 1032.4mb 56f 53f
9:04 4.5ft 6s 20 25 mph 1032mb 56f 52f
8:04 4.5ft 6s 20 25 mph 1031.5mb 56f 52f
7:04 5ft 5s 20 22 mph 1031mb 56f 53f
6:04 5ft 6s 22 29 mph 1030.1mb 56f 53f
5:04 4.5ft 8s 22 29 mph 1029.7mb 56f 53f
4:04 5ft 8s 22 27 mph 1029.2mb 56f 53f
3:04 4.5ft 8s 22 25 mph 1029.4mb 57f 54f
2:04 3.5ft 6s 20 25 mph 1029.4mb 56f 55f
1:04 4.5ft 4s 20 25 mph 1029mb 57f 55f
12:04 4.5ft 5s 20 25 mph 1028.9mb 57f 56f
Mi 09/28 11:04 5ft 5s 22 27 mph 1028.7mb 57f 57f
10:04 5ft 5s 22 29 mph 1028.3mb 57f 57f
9:04 5ft 6s 22 27 mph 1027.8mb 57f 57f
8:04 5ft 5s 22 27 mph 1027.2mb 57f 57f
7:04 5ft 6s 20 25 mph 1026.6mb 58f 57f
6:04 4ft 6s 18 22 mph 1026.5mb 58f 57f
5:04 3.5ft 5s 20 25 mph 1025.9mb 58f 57f
4:04 4ft 8s 16 18 mph 1025.6mb 58f 57f
3:04 3.5ft 5s 13 16 mph 1025.5mb 58f 57f
2:04 4ft 5s 16 18 mph 1025.4mb 58f 56f
1:04 4.5ft 6s 18 22 mph 1025.4mb 58f 55f
12:04 5ft 5s 18 20 mph 1025.2mb 58f 55f
11:04 4.5ft 5s 20 27 mph 1025.4mb 58f 54f
10:04 4.5ft 6s 20 25 mph 1025.1mb 57f 53f
9:04 4.5ft 8s 20 25 mph 1024.3mb 57f 53f
8:04 4.5ft 5s 20 27 mph 1023.7mb 57f 53f
7:04 5ft 8s 18 22 mph 1022.9mb 57f 54f
6:04 4.5ft 8s 18 20 mph 1022mb 57f 54f
5:04 5ft 8s 16 20 mph 1021.5mb 57f 54f
4:04 5ft 8s 18 22 mph 1020.6mb 57f 55f
3:04 5ft 8s 18 22 mph 1019.9mb 57f 56f
2:04 5ft 8s 18 22 mph 1019.5mb 57f 56f
1:04 4ft 6s 20 25 mph 1018.9mb 57f 56f
12:04 3.5ft 6s 20 25 mph 1018.2mb 57f 56f
Di 09/27 11:04 3.5ft 6s 18 20 mph 1017.4mb 57f 57f
10:04 3.5ft 6s 13 16 mph 1016.5mb 57f 58f
9:04 3.5ft 6s 9 11 mph 1015.7mb 57f 58f
8:04 4ft 6s 7 9 mph 1014.6mb 57f 58f
7:04 3.5ft 5s 4 7 mph 1013.8mb 58f 58f
6:04 2.5ft 5s 4 7 mph 1013.4mb 58f 59f
5:04 2.5ft 5s 4
mph
1013mb 58f 60f
4:04 2.5ft 5s 4
mph
1012mb 58f 60f
3:04 2.5ft 5s 4
mph
1011.4mb 58f 60f
2:04 3.5ft 6s 2
mph
1011.4mb 58f 59f
1:04 3ft 6s 2 4 mph 1011.5mb 58f 59f
12:04 3.5ft 6s 4
mph
1011.5mb 58f 58f
11:04 3.5ft 6s 7 9 mph 1012.2mb 58f 58f
10:04 3.5ft 5s 2 4 mph 1011.9mb 58f 58f
9:04 4ft 6s 7 9 mph 1012.3mb 58f 58f
8:04 4.5ft 5s 13 16 mph 1012.2mb 58f 59f
7:04 5ft 5s 16 20 mph 1012.4mb 58f 58f
6:04 4.5ft 5s 20 25 mph 1012.2mb 58f 60f
5:04 4.5ft 5s 18 20 mph 1012.5mb 58f 60f